Terminal Aerodrome Forecast
Issued by NWS

Home | Current Version | Previous Version | Text Only | Print | Product List | Glossary On
Versions: 1 2 3 4 5 6 7 8 9 10 11 12 13 14 15 16 17 18 19 20 21 22 23
000
FTUS43 KDDC 230102 AAA
TAFHYS
TAF AMD
KHYS 230102Z 2301/2324 18007KT P6SM VCTS BKN050CB
     FM230300 17008KT P6SM SCT015
     FM230900 VRB05KT 1/2SM FG OVC005
     FM231900 16006KT P6SM SCT035=

USA.gov is the U.S. government's official web portal to all federal, state and local government web resources and services.